createdAt,value
2023-02-23T00:00:21.184Z,12.70
2023-02-23T00:01:28.617Z,12.70
2023-02-23T00:02:30.669Z,12.70
2023-02-23T00:03:32.399Z,12.70
2023-02-23T00:04:35.347Z,12.70
2023-02-23T00:05:37.356Z,12.70
2023-02-23T00:06:39.048Z,12.70
2023-02-23T00:07:43.883Z,12.70
2023-02-23T00:08:47.893Z,12.70
2023-02-23T00:09:51.080Z,12.70
2023-02-23T00:10:58.469Z,12.70
2023-02-23T00:12:00.386Z,12.70
2023-02-23T00:13:02.478Z,12.70
2023-02-23T00:14:04.338Z,12.70
2023-02-23T00:15:07.875Z,12.70
2023-02-23T00:16:15.116Z,12.70
2023-02-23T00:17:17.716Z,12.60
2023-02-23T00:18:20.992Z,12.60
2023-02-23T00:19:25.378Z,12.60
2023-02-23T00:20:28.194Z,12.60
2023-02-23T00:21:35.229Z,12.60
2023-02-23T00:22:41.103Z,12.60
2023-02-23T00:23:54.018Z,12.60
2023-02-23T00:24:57.501Z,12.70
2023-02-23T00:25:59.852Z,12.70
2023-02-23T00:27:06.442Z,12.60
2023-02-23T00:28:08.130Z,12.60
2023-02-23T00:29:17.609Z,12.60
2023-02-23T00:30:20.393Z,12.50
2023-02-23T00:31:27.377Z,12.50
2023-02-23T00:32:29.503Z,12.60
2023-02-23T00:33:31.575Z,12.60
2023-02-23T00:34:33.452Z,12.60
2023-02-23T00:35:36.797Z,12.60
2023-02-23T00:36:41.158Z,12.60
2023-02-23T00:37:45.923Z,12.60
2023-02-23T00:38:48.235Z,12.60
2023-02-23T00:39:50.583Z,12.60
2023-02-23T00:40:52.413Z,12.60
2023-02-23T00:41:55.495Z,12.60
2023-02-23T00:43:00.835Z,12.60
2023-02-23T00:44:02.466Z,12.60
2023-02-23T00:45:08.743Z,12.60
2023-02-23T00:46:10.580Z,12.60
2023-02-23T00:47:12.605Z,12.60
2023-02-23T00:48:14.486Z,12.60
2023-02-23T00:49:16.635Z,12.60
2023-02-23T00:50:18.890Z,12.60
2023-02-23T00:51:20.916Z,12.60
2023-02-23T00:52:22.582Z,12.60
2023-02-23T00:53:24.211Z,12.60
2023-02-23T00:54:26.177Z,12.50
2023-02-23T00:55:27.799Z,12.60
2023-02-23T00:56:29.551Z,12.50
2023-02-23T00:57:31.175Z,12.60
2023-02-23T00:58:33.028Z,12.50
2023-02-23T00:59:34.733Z,12.50
2023-02-23T01:00:42.170Z,12.50
2023-02-23T01:01:44.464Z,12.50
2023-02-23T01:02:47.682Z,12.50
2023-02-23T01:03:49.513Z,12.50
2023-02-23T01:04:51.148Z,12.50
2023-02-23T01:05:53.236Z,12.50
2023-02-23T01:06:54.900Z,12.50
2023-02-23T01:07:56.824Z,12.50
2023-02-23T01:08:59.187Z,12.40
2023-02-23T01:10:00.873Z,12.50
2023-02-23T01:11:15.757Z,12.50
2023-02-23T01:12:17.582Z,12.50
2023-02-23T01:13:20.716Z,12.50
2023-02-23T01:14:23.686Z,12.50
2023-02-23T01:15:25.336Z,12.40
2023-02-23T01:16:30.468Z,12.40
2023-02-23T01:17:32.111Z,12.40
2023-02-23T01:18:34.925Z,12.40
2023-02-23T01:19:36.594Z,12.40
2023-02-23T01:20:42.454Z,12.40
2023-02-23T01:21:44.812Z,12.40
2023-02-23T01:22:49.981Z,12.40
2023-02-23T01:23:53.499Z,12.40
2023-02-23T01:24:55.430Z,12.40
2023-02-23T01:25:57.264Z,12.40
2023-02-23T01:26:58.993Z,12.40
2023-02-23T01:28:01.680Z,12.40
2023-02-23T01:29:08.812Z,12.40
2023-02-23T01:30:14.793Z,12.40
2023-02-23T01:31:17.443Z,12.30
2023-02-23T01:32:19.396Z,12.30
2023-02-23T01:33:21.089Z,12.40
2023-02-23T01:34:23.995Z,12.40
2023-02-23T01:35:25.619Z,12.30
2023-02-23T01:36:31.279Z,12.30
2023-02-23T01:37:40.453Z,12.30
2023-02-23T01:38:42.151Z,12.30
2023-02-23T01:39:43.896Z,12.30
2023-02-23T01:40:47.341Z,12.30
2023-02-23T01:41:52.124Z,12.30
2023-02-23T01:42:54.248Z,12.30
2023-02-23T01:44:00.590Z,12.30
2023-02-23T01:45:22.521Z,12.30
2023-02-23T01:46:24.670Z,12.30
2023-02-23T01:47:27.275Z,12.30
2023-02-23T01:48:34.254Z,12.30
2023-02-23T01:49:35.946Z,12.30
2023-02-23T01:50:52.662Z,12.30
2023-02-23T01:52:03.536Z,12.30
2023-02-23T01:53:05.797Z,12.30
2023-02-23T01:54:14.402Z,12.20
2023-02-23T01:55:23.620Z,12.20
2023-02-23T01:56:31.839Z,12.20
2023-02-23T01:57:33.852Z,12.20
2023-02-23T01:58:35.566Z,12.20
2023-02-23T01:59:41.444Z,12.20
2023-02-23T02:00:48.976Z,12.20
2023-02-23T02:01:50.681Z,12.20
2023-02-23T02:02:53.091Z,12.20
2023-02-23T02:04:06.624Z,12.20
2023-02-23T02:05:13.820Z,12.20
2023-02-23T02:06:20.035Z,12.20
2023-02-23T02:07:24.967Z,12.20
2023-02-23T02:08:30.288Z,12.20
2023-02-23T02:09:38.100Z,12.20
2023-02-23T02:10:40.082Z,12.10
2023-02-23T02:11:44.787Z,12.10
2023-02-23T02:12:52.437Z,12.20
2023-02-23T02:14:02.666Z,12.20
2023-02-23T02:15:07.701Z,12.20
2023-02-23T02:16:29.213Z,12.10
2023-02-23T02:17:37.742Z,12.10
2023-02-23T02:19:12.318Z,12.20
2023-02-23T02:20:44.830Z,12.10
2023-02-23T02:22:11.081Z,12.10
2023-02-23T02:23:22.504Z,12.10
2023-02-23T02:24:55.688Z,12.10
2023-02-23T02:26:24.338Z,12.10
2023-02-23T02:27:43.509Z,12.00
2023-02-23T02:29:09.279Z,12.00
2023-02-23T02:30:34.414Z,12.00
2023-02-23T02:32:11.234Z,11.90
2023-02-23T02:33:19.103Z,12.00
2023-02-23T02:34:49.084Z,12.00
2023-02-23T02:35:53.459Z,12.00
2023-02-23T02:37:07.112Z,12.00
2023-02-23T02:38:33.483Z,12.00
2023-02-23T02:39:53.743Z,12.00
2023-02-23T02:41:36.037Z,11.90
2023-02-23T02:43:22.177Z,12.00
2023-02-23T02:44:23.966Z,12.00
2023-02-23T02:45:39.990Z,11.90
2023-02-23T02:46:48.145Z,11.90
2023-02-23T02:48:01.621Z,11.90
2023-02-23T02:49:20.148Z,11.90
2023-02-23T02:50:31.522Z,11.90
2023-02-23T02:51:42.632Z,11.90
2023-02-23T02:53:05.743Z,11.90
2023-02-23T02:54:21.324Z,11.90
2023-02-23T02:55:27.858Z,11.90
2023-02-23T02:56:31.075Z,11.90
2023-02-23T02:57:33.703Z,11.90
2023-02-23T02:58:36.854Z,12.00
2023-02-23T03:00:06.054Z,11.90
2023-02-23T03:01:33.878Z,12.00
2023-02-23T03:02:57.268Z,11.80
2023-02-23T03:04:21.452Z,12.00
2023-02-23T03:05:53.450Z,12.00
2023-02-23T03:07:27.896Z,12.00
2023-02-23T03:09:18.623Z,12.00
2023-02-23T03:11:13.950Z,12.00
2023-02-23T03:12:56.894Z,12.00
2023-02-23T03:14:22.129Z,11.90
2023-02-23T03:16:04.073Z,11.90
2023-02-23T03:17:30.869Z,11.90
2023-02-23T03:19:08.029Z,11.90
2023-02-23T03:20:46.826Z,11.90
2023-02-23T03:22:10.189Z,11.90
2023-02-23T03:23:54.418Z,11.90
2023-02-23T03:25:24.879Z,11.80
2023-02-23T03:26:56.285Z,11.80
2023-02-23T03:28:24.991Z,11.80
2023-02-23T03:30:27.715Z,11.80
2023-02-23T03:32:02.885Z,11.80
2023-02-23T03:33:32.632Z,11.80
2023-02-23T03:35:03.918Z,11.80
2023-02-23T03:36:29.879Z,11.80
2023-02-23T03:37:57.476Z,11.70
2023-02-23T03:39:39.180Z,11.70
2023-02-23T03:41:02.145Z,11.70
2023-02-23T03:42:29.595Z,11.70
2023-02-23T03:43:56.293Z,11.70
2023-02-23T03:45:18.073Z,11.70
2023-02-23T03:46:40.834Z,11.70
2023-02-23T03:48:03.749Z,11.70
2023-02-23T03:49:28.575Z,11.70
2023-02-23T03:51:04.136Z,11.70
2023-02-23T03:52:36.840Z,11.70
2023-02-23T03:54:13.684Z,11.70
2023-02-23T03:55:37.724Z,11.90
2023-02-23T03:57:03.799Z,11.70
2023-02-23T03:58:30.558Z,11.70
2023-02-23T03:59:56.757Z,11.70
2023-02-23T04:01:21.705Z,11.70
2023-02-23T04:02:43.981Z,11.70
2023-02-23T04:04:07.106Z,11.70
2023-02-23T04:05:39.043Z,11.70
2023-02-23T04:07:06.850Z,11.70
2023-02-23T04:08:32.893Z,11.70
2023-02-23T04:09:53.453Z,11.70
2023-02-23T04:11:21.663Z,11.70
2023-02-23T04:12:58.806Z,11.70
2023-02-23T04:14:04.195Z,11.70
2023-02-23T04:15:33.184Z,11.70
2023-02-23T04:16:38.118Z,11.70
2023-02-23T04:17:40.292Z,11.70
2023-02-23T04:18:42.917Z,11.60
2023-02-23T04:19:52.314Z,11.60
2023-02-23T04:20:59.922Z,11.70
2023-02-23T04:22:03.108Z,11.70
2023-02-23T04:23:04.996Z,11.70
2023-02-23T04:24:06.743Z,11.70
2023-02-23T04:25:09.188Z,11.70
2023-02-23T04:26:10.829Z,11.70
2023-02-23T04:27:13.576Z,11.80
2023-02-23T04:28:16.287Z,11.80
2023-02-23T04:29:17.960Z,11.80
2023-02-23T04:30:24.730Z,11.80
2023-02-23T04:31:27.110Z,11.80
2023-02-23T04:32:29.934Z,11.80
2023-02-23T04:33:31.700Z,11.80
2023-02-23T04:34:35.266Z,11.80
2023-02-23T04:35:37.298Z,11.90
2023-02-23T04:36:39.248Z,11.80
2023-02-23T04:37:40.916Z,11.90
2023-02-23T04:38:42.552Z,11.80
2023-02-23T04:39:48.507Z,11.80
2023-02-23T04:40:51.141Z,11.80
2023-02-23T04:41:52.848Z,11.90
2023-02-23T04:42:55.744Z,11.80
2023-02-23T04:43:57.589Z,11.80
2023-02-23T04:44:59.349Z,11.80
2023-02-23T04:46:01.537Z,11.80
2023-02-23T04:47:03.940Z,11.80
2023-02-23T04:48:05.903Z,11.80
2023-02-23T04:49:07.740Z,11.80
2023-02-23T04:50:10.327Z,11.80
2023-02-23T04:51:12.005Z,11.80
2023-02-23T04:52:13.760Z,11.80
2023-02-23T04:53:15.519Z,11.80
2023-02-23T04:54:17.459Z,11.80
2023-02-23T04:55:24.688Z,11.80
2023-02-23T04:56:26.507Z,11.80
2023-02-23T04:57:29.097Z,11.80
2023-02-23T04:58:30.813Z,11.80
2023-02-23T04:59:33.275Z,11.80
2023-02-23T05:00:35.016Z,11.80
2023-02-23T05:01:37.475Z,11.80
2023-02-23T05:02:39.643Z,11.80
2023-02-23T05:03:41.381Z,11.80
2023-02-23T05:04:43.106Z,11.80
2023-02-23T05:05:45.420Z,11.70
2023-02-23T05:06:47.470Z,11.70
2023-02-23T05:07:49.498Z,11.70
2023-02-23T05:08:51.302Z,11.70
2023-02-23T05:09:53.072Z,11.70
2023-02-23T05:10:54.826Z,11.70
2023-02-23T05:11:56.609Z,11.70
2023-02-23T05:12:58.434Z,11.70
2023-02-23T05:14:00.401Z,11.70
2023-02-23T05:15:02.137Z,11.80
2023-02-23T05:16:04.750Z,11.70
2023-02-23T05:17:08.615Z,11.70
2023-02-23T05:18:10.623Z,11.70
2023-02-23T05:19:12.326Z,11.70
2023-02-23T05:20:14.990Z,11.70
2023-02-23T05:21:17.303Z,11.70
2023-02-23T05:22:19.245Z,11.70
2023-02-23T05:23:22.206Z,11.70
2023-02-23T05:24:24.194Z,11.70
2023-02-23T05:25:26.105Z,11.70
2023-02-23T05:26:28.333Z,11.70
2023-02-23T05:27:30.374Z,11.70
2023-02-23T05:28:33.863Z,11.70
2023-02-23T05:29:36.002Z,11.70
2023-02-23T05:30:38.115Z,11.70
2023-02-23T05:31:39.907Z,11.80
2023-02-23T05:32:44.509Z,11.80
2023-02-23T05:33:46.711Z,11.80
2023-02-23T05:34:48.415Z,11.80
2023-02-23T05:35:50.627Z,11.80
2023-02-23T05:36:52.546Z,11.70
2023-02-23T05:37:54.557Z,11.70
2023-02-23T05:38:56.218Z,11.70
2023-02-23T05:39:57.949Z,11.70
2023-02-23T05:40:59.872Z,11.70
2023-02-23T05:42:01.616Z,11.60
2023-02-23T05:43:03.724Z,11.60
2023-02-23T05:44:05.859Z,11.60
2023-02-23T05:45:08.642Z,11.60
2023-02-23T05:46:14.721Z,11.60
2023-02-23T05:47:16.673Z,11.60
2023-02-23T05:48:18.585Z,11.60
2023-02-23T05:49:20.494Z,11.70
2023-02-23T05:50:22.923Z,11.70
2023-02-23T05:51:26.856Z,11.70
2023-02-23T05:52:28.731Z,11.70
2023-02-23T05:53:31.246Z,11.70
2023-02-23T05:54:33.027Z,11.70
2023-02-23T05:55:36.077Z,11.70
2023-02-23T05:56:38.788Z,11.70
2023-02-23T05:57:41.596Z,11.70
2023-02-23T05:58:43.430Z,11.80
2023-02-23T05:59:45.274Z,11.80
2023-02-23T06:00:46.970Z,11.80
2023-02-23T06:01:48.990Z,11.80
2023-02-23T06:02:54.298Z,11.80
2023-02-23T06:03:57.574Z,11.80
2023-02-23T06:04:59.552Z,11.80
2023-02-23T06:06:01.307Z,11.80
2023-02-23T06:07:03.357Z,11.80
2023-02-23T06:08:05.840Z,11.80
2023-02-23T06:09:07.923Z,11.80
2023-02-23T06:10:11.671Z,11.80
2023-02-23T06:11:13.676Z,11.90
2023-02-23T06:12:15.669Z,11.90
2023-02-23T06:13:17.987Z,11.80
2023-02-23T06:14:19.736Z,11.80
2023-02-23T06:15:22.995Z,11.80
2023-02-23T06:16:24.908Z,11.80
2023-02-23T06:17:27.598Z,11.80
2023-02-23T06:18:29.988Z,11.80
2023-02-23T06:19:33.404Z,11.90
2023-02-23T06:20:35.918Z,11.90
2023-02-23T06:21:38.000Z,11.90
2023-02-23T06:22:40.139Z,11.90
2023-02-23T06:23:41.978Z,11.90
2023-02-23T06:24:44.724Z,11.90
2023-02-23T06:25:47.650Z,11.90
2023-02-23T06:26:49.450Z,11.90
2023-02-23T06:27:51.390Z,11.90
2023-02-23T06:28:53.388Z,11.90
2023-02-23T06:29:55.074Z,11.90
2023-02-23T06:30:57.481Z,11.90
2023-02-23T06:32:01.081Z,11.90
2023-02-23T06:33:03.194Z,12.00
2023-02-23T06:34:05.415Z,12.00
2023-02-23T06:35:10.246Z,12.00
2023-02-23T06:36:11.901Z,12.00
2023-02-23T06:37:13.636Z,12.00
2023-02-23T06:38:15.660Z,12.00
2023-02-23T06:39:19.395Z,12.00
2023-02-23T06:40:22.307Z,12.00
2023-02-23T06:41:25.355Z,12.10
2023-02-23T06:42:27.153Z,12.00
2023-02-23T06:43:30.297Z,12.00
2023-02-23T06:44:35.382Z,12.00
2023-02-23T06:45:37.505Z,12.00
2023-02-23T06:46:39.715Z,12.00
2023-02-23T06:47:41.736Z,12.00
2023-02-23T06:48:43.380Z,12.00
2023-02-23T06:49:45.222Z,12.00
2023-02-23T06:50:47.193Z,12.00
2023-02-23T06:51:48.778Z,12.00
2023-02-23T06:52:50.816Z,12.00
2023-02-23T06:53:53.633Z,12.10
2023-02-23T06:54:55.323Z,12.20
2023-02-23T06:55:57.298Z,12.10
2023-02-23T06:56:59.027Z,12.10
2023-02-23T06:58:00.724Z,12.10
2023-02-23T06:59:02.387Z,12.10
2023-02-23T07:00:04.961Z,12.10
2023-02-23T07:01:08.003Z,12.10
2023-02-23T07:02:12.687Z,12.10
2023-02-23T07:03:14.634Z,12.10
2023-02-23T07:04:16.952Z,12.10
2023-02-23T07:05:18.898Z,12.20
2023-02-23T07:06:20.810Z,12.10
2023-02-23T07:07:22.909Z,12.10
2023-02-23T07:08:24.925Z,12.20
2023-02-23T07:09:30.580Z,12.20
2023-02-23T07:10:33.454Z,12.20
2023-02-23T07:11:35.552Z,12.20
2023-02-23T07:12:37.238Z,12.20
2023-02-23T07:13:39.554Z,12.20
2023-02-23T07:14:41.561Z,12.20
2023-02-23T07:15:43.806Z,12.20
2023-02-23T07:16:45.769Z,12.20
2023-02-23T07:17:49.001Z,12.30
2023-02-23T07:18:51.071Z,12.30
2023-02-23T07:19:52.778Z,12.30
2023-02-23T07:20:55.311Z,12.30
2023-02-23T07:21:57.075Z,12.30
2023-02-23T07:23:00.681Z,12.30
2023-02-23T07:24:05.025Z,12.40
2023-02-23T07:25:07.561Z,12.40
2023-02-23T07:26:09.772Z,12.40
2023-02-23T07:27:11.488Z,12.40
2023-02-23T07:28:14.297Z,12.40
2023-02-23T07:29:16.390Z,12.40
2023-02-23T07:30:20.290Z,12.40
2023-02-23T07:31:22.835Z,12.40
2023-02-23T07:32:24.949Z,12.50
2023-02-23T07:33:27.208Z,12.50
2023-02-23T07:34:28.890Z,12.50
2023-02-23T07:35:30.578Z,12.50
2023-02-23T07:36:32.707Z,12.40
2023-02-23T07:37:35.983Z,12.40
2023-02-23T07:38:38.059Z,12.40
2023-02-23T07:39:39.736Z,12.50
2023-02-23T07:40:41.699Z,12.50
2023-02-23T07:41:43.708Z,12.50
2023-02-23T07:42:45.597Z,12.50
2023-02-23T07:43:48.996Z,12.50
2023-02-23T07:44:51.246Z,12.60
2023-02-23T07:45:53.874Z,12.60
2023-02-23T07:46:55.824Z,12.60
2023-02-23T07:47:57.828Z,12.60
2023-02-23T07:48:59.534Z,12.60
2023-02-23T07:50:03.778Z,12.70
2023-02-23T07:51:12.224Z,12.70
2023-02-23T07:52:19.730Z,12.70
2023-02-23T07:53:21.621Z,12.70
2023-02-23T07:54:25.623Z,12.70
2023-02-23T07:55:27.812Z,12.70
2023-02-23T07:56:30.116Z,12.70
2023-02-23T07:57:32.063Z,12.70
2023-02-23T07:58:35.195Z,12.70
2023-02-23T07:59:39.655Z,12.70
2023-02-23T08:00:41.578Z,12.60
2023-02-23T08:01:44.108Z,12.60
2023-02-23T08:02:46.028Z,12.80
2023-02-23T08:03:50.950Z,12.70
2023-02-23T08:04:54.486Z,12.60
2023-02-23T08:05:56.541Z,12.70
2023-02-23T08:06:58.883Z,12.70
2023-02-23T08:08:00.947Z,12.70
2023-02-23T08:09:04.319Z,12.80
2023-02-23T08:10:06.790Z,12.80
2023-02-23T08:11:09.328Z,12.80
2023-02-23T08:12:11.646Z,12.80
2023-02-23T08:13:13.586Z,12.90
2023-02-23T08:14:15.250Z,12.90
2023-02-23T08:15:20.876Z,12.90
2023-02-23T08:16:22.900Z,12.90
2023-02-23T08:17:26.967Z,12.90
2023-02-23T08:18:29.020Z,12.90
2023-02-23T08:19:30.924Z,12.90
2023-02-23T08:20:33.561Z,12.90
2023-02-23T08:21:35.310Z,12.90
2023-02-23T08:22:48.984Z,12.90
2023-02-23T08:23:51.728Z,12.80
2023-02-23T08:24:53.508Z,12.80
2023-02-23T08:25:55.332Z,12.90
2023-02-23T08:26:58.348Z,12.80
2023-02-23T08:28:04.858Z,12.90
2023-02-23T08:29:06.955Z,12.90
2023-02-23T08:30:10.111Z,12.90
2023-02-23T08:31:14.179Z,12.90
2023-02-23T08:32:16.230Z,12.90
2023-02-23T08:33:18.242Z,12.90
2023-02-23T08:34:20.833Z,12.90
2023-02-23T08:35:23.186Z,13.00
2023-02-23T08:36:24.976Z,13.00
2023-02-23T08:37:26.818Z,13.00
2023-02-23T08:38:29.429Z,13.00
2023-02-23T08:39:32.806Z,13.00
2023-02-23T08:40:34.665Z,13.00
2023-02-23T08:41:36.745Z,13.10
2023-02-23T08:42:39.725Z,13.10
2023-02-23T08:43:41.644Z,13.10
2023-02-23T08:44:43.503Z,13.10
2023-02-23T08:45:45.612Z,13.20
2023-02-23T08:46:47.658Z,13.30
2023-02-23T08:47:49.599Z,13.20
2023-02-23T08:48:52.713Z,13.30
2023-02-23T08:49:54.442Z,13.30
2023-02-23T08:50:59.452Z,13.30
2023-02-23T08:52:01.243Z,13.30
2023-02-23T08:53:04.401Z,13.30
2023-02-23T08:54:12.947Z,13.40
2023-02-23T08:55:18.261Z,13.40
2023-02-23T08:56:23.163Z,13.40
2023-02-23T08:57:26.450Z,13.40
2023-02-23T08:58:30.926Z,13.30
2023-02-23T08:59:35.949Z,13.30
2023-02-23T09:00:39.677Z,13.30
2023-02-23T09:01:43.341Z,13.30
2023-02-23T09:02:48.485Z,13.30
2023-02-23T09:03:50.680Z,13.30
2023-02-23T09:04:54.361Z,13.30
2023-02-23T09:06:00.960Z,13.30
2023-02-23T09:07:05.577Z,13.30
2023-02-23T09:08:09.322Z,13.30
2023-02-23T09:09:11.433Z,13.40
2023-02-23T09:10:22.452Z,13.40
2023-02-23T09:11:25.507Z,13.40
2023-02-23T09:12:27.621Z,13.40
2023-02-23T09:13:29.759Z,13.40
2023-02-23T09:14:32.258Z,13.50
2023-02-23T09:15:35.719Z,13.50
2023-02-23T09:16:37.882Z,13.50
2023-02-23T09:17:41.604Z,13.50
2023-02-23T09:18:43.511Z,13.50
2023-02-23T09:19:45.680Z,13.50
2023-02-23T09:20:47.596Z,13.60
2023-02-23T09:21:49.529Z,13.60
2023-02-23T09:22:51.299Z,13.60
2023-02-23T09:23:56.282Z,13.60
2023-02-23T09:24:58.159Z,13.70
2023-02-23T09:26:06.767Z,13.70
2023-02-23T09:27:08.776Z,13.70
2023-02-23T09:28:16.525Z,13.70
2023-02-23T09:29:18.243Z,13.80
2023-02-23T09:30:21.689Z,13.80
2023-02-23T09:31:25.203Z,13.70
2023-02-23T09:32:27.334Z,13.80
2023-02-23T09:33:29.537Z,13.90
2023-02-23T09:34:36.320Z,13.90
2023-02-23T09:35:40.953Z,13.90
2023-02-23T09:36:43.145Z,13.90
2023-02-23T09:37:49.212Z,13.90
2023-02-23T09:38:55.327Z,13.90
2023-02-23T09:39:58.086Z,13.90
2023-02-23T09:41:00.231Z,13.90
2023-02-23T09:42:20.001Z,13.90
2023-02-23T09:43:39.572Z,13.90
2023-02-23T09:44:41.147Z,13.90
2023-02-23T09:45:49.265Z,13.90
2023-02-23T09:47:00.168Z,14.00
2023-02-23T09:48:07.477Z,14.00
2023-02-23T09:49:17.743Z,14.00
2023-02-23T09:50:27.384Z,14.00
2023-02-23T09:51:33.182Z,14.10
2023-02-23T09:52:45.008Z,14.10
2023-02-23T09:53:54.709Z,14.10
2023-02-23T09:54:58.431Z,14.00
2023-02-23T09:56:00.871Z,14.00
2023-02-23T09:57:06.892Z,14.00
2023-02-23T09:58:21.929Z,14.00
2023-02-23T09:59:25.376Z,14.00
2023-02-23T10:00:31.196Z,14.00
2023-02-23T10:01:48.266Z,14.00
2023-02-23T10:02:52.931Z,14.00
2023-02-23T10:04:22.980Z,14.00
2023-02-23T10:05:32.569Z,14.10
2023-02-23T10:06:35.274Z,14.10
2023-02-23T10:08:08.057Z,14.10
2023-02-23T10:09:29.689Z,14.10
2023-02-23T10:10:56.201Z,14.20
2023-02-23T10:12:02.455Z,14.20
2023-02-23T10:13:28.724Z,14.20
2023-02-23T10:15:06.811Z,14.20
2023-02-23T10:16:17.647Z,14.20
2023-02-23T10:17:47.688Z,14.20
2023-02-23T10:19:06.866Z,14.30
2023-02-23T10:20:30.423Z,14.30
2023-02-23T10:22:02.495Z,14.40
2023-02-23T10:23:09.824Z,14.30
2023-02-23T10:24:25.379Z,14.40
2023-02-23T10:25:32.334Z,14.40
2023-02-23T10:26:44.275Z,14.40
2023-02-23T10:27:49.077Z,14.40
2023-02-23T10:28:56.288Z,14.50
2023-02-23T10:30:02.768Z,14.50
2023-02-23T10:31:29.046Z,14.50
2023-02-23T10:32:41.908Z,14.50
2023-02-23T10:33:44.569Z,14.50
2023-02-23T10:34:49.726Z,14.50
2023-02-23T10:36:12.619Z,14.50
2023-02-23T10:37:17.314Z,14.50
2023-02-23T10:38:20.145Z,14.50
2023-02-23T10:39:21.909Z,14.60
2023-02-23T10:40:28.864Z,14.60
2023-02-23T10:41:32.025Z,14.60
2023-02-23T10:42:34.581Z,14.60
2023-02-23T10:43:36.801Z,14.60
2023-02-23T10:44:38.781Z,14.60
2023-02-23T10:45:48.357Z,14.60
2023-02-23T10:47:08.228Z,14.60
2023-02-23T10:48:18.697Z,14.70
2023-02-23T10:49:23.232Z,14.70
2023-02-23T10:50:29.280Z,14.70
2023-02-23T10:51:36.712Z,14.70
2023-02-23T10:52:48.278Z,14.70
2023-02-23T10:53:50.122Z,14.70
2023-02-23T10:54:53.929Z,14.80
2023-02-23T10:56:15.597Z,14.80
2023-02-23T10:57:27.921Z,14.80
2023-02-23T10:58:30.475Z,14.80
2023-02-23T10:59:33.153Z,14.80
2023-02-23T11:00:39.209Z,14.80
2023-02-23T11:02:00.938Z,14.80
2023-02-23T11:03:24.416Z,14.80
2023-02-23T11:04:29.482Z,14.80
2023-02-23T11:05:43.337Z,14.80
2023-02-23T11:06:45.240Z,14.80
2023-02-23T11:07:47.139Z,14.80
2023-02-23T11:08:49.422Z,14.70
2023-02-23T11:09:54.834Z,14.80
2023-02-23T11:10:56.509Z,14.80
2023-02-23T11:12:25.666Z,14.80
2023-02-23T11:13:33.585Z,14.80
2023-02-23T11:14:36.498Z,14.80
2023-02-23T11:15:50.826Z,14.90
2023-02-23T11:16:52.871Z,14.90
2023-02-23T11:18:04.101Z,14.90
2023-02-23T11:19:20.931Z,15.00
2023-02-23T11:20:33.398Z,15.00
2023-02-23T11:21:40.299Z,15.00
2023-02-23T11:22:42.874Z,15.10
2023-02-23T11:23:44.931Z,15.30
2023-02-23T11:24:46.653Z,15.20
2023-02-23T11:25:51.337Z,15.20
2023-02-23T11:27:03.940Z,15.30
2023-02-23T11:28:06.072Z,15.30
2023-02-23T11:29:22.390Z,15.30
2023-02-23T11:30:31.411Z,15.40
2023-02-23T11:31:38.489Z,15.40
2023-02-23T11:32:43.464Z,15.50
2023-02-23T11:33:47.440Z,15.50
2023-02-23T11:35:21.127Z,15.50
2023-02-23T11:36:22.880Z,15.50
2023-02-23T11:37:25.063Z,15.60
2023-02-23T11:38:30.455Z,15.60
2023-02-23T11:39:33.274Z,15.60
2023-02-23T11:40:36.042Z,15.60
2023-02-23T11:41:40.502Z,15.60
2023-02-23T11:43:14.959Z,15.60
2023-02-23T11:44:22.427Z,15.70
2023-02-23T11:45:34.573Z,15.70
2023-02-23T11:46:39.175Z,15.70
2023-02-23T11:47:45.063Z,15.70
2023-02-23T11:49:09.938Z,15.70
2023-02-23T11:50:28.857Z,15.70
2023-02-23T11:51:46.308Z,15.70
2023-02-23T11:52:54.315Z,15.80
2023-02-23T11:53:56.858Z,15.80
2023-02-23T11:55:02.668Z,15.80
2023-02-23T11:56:11.306Z,15.80
2023-02-23T11:57:22.502Z,15.90
2023-02-23T11:58:36.053Z,15.90
2023-02-23T11:59:41.675Z,15.90
2023-02-23T12:00:44.099Z,16.00
2023-02-23T12:01:49.987Z,16.00
2023-02-23T12:03:03.470Z,16.00
2023-02-23T12:04:05.968Z,16.00
2023-02-23T12:05:28.196Z,16.00
2023-02-23T12:06:33.211Z,16.00
2023-02-23T12:07:55.656Z,16.10
2023-02-23T12:09:05.500Z,16.10
2023-02-23T12:10:37.560Z,16.20
2023-02-23T12:11:48.421Z,16.20
2023-02-23T12:13:34.804Z,16.20
2023-02-23T12:14:57.248Z,16.30
2023-02-23T12:16:01.835Z,16.30
2023-02-23T12:17:18.471Z,16.30
2023-02-23T12:18:45.404Z,16.30
2023-02-23T12:20:16.610Z,16.30
2023-02-23T12:21:43.423Z,16.40
2023-02-23T12:22:59.757Z,16.40
2023-02-23T12:24:11.052Z,16.40
2023-02-23T12:25:35.152Z,16.40
2023-02-23T12:26:46.402Z,16.40
2023-02-23T12:28:19.508Z,16.40
2023-02-23T12:29:31.785Z,16.40
2023-02-23T12:31:02.827Z,16.30
2023-02-23T12:32:19.565Z,16.20
2023-02-23T12:33:44.400Z,16.10
2023-02-23T12:35:01.652Z,16.10
2023-02-23T12:36:06.369Z,16.10
2023-02-23T12:37:40.739Z,16.10
2023-02-23T12:38:58.060Z,16.00
2023-02-23T12:40:28.365Z,16.00
2023-02-23T12:41:43.854Z,16.00
2023-02-23T12:42:58.497Z,16.00
2023-02-23T12:44:13.400Z,16.00
2023-02-23T12:45:28.640Z,16.00
2023-02-23T12:46:43.718Z,16.00
2023-02-23T12:48:12.338Z,16.10
2023-02-23T12:49:27.291Z,16.10
2023-02-23T12:50:37.746Z,16.10
2023-02-23T12:52:17.264Z,16.10
2023-02-23T12:53:37.748Z,16.10
2023-02-23T12:54:39.620Z,16.20
2023-02-23T12:56:04.891Z,16.20
2023-02-23T12:57:32.559Z,16.00
2023-02-23T12:58:48.488Z,16.20
2023-02-23T13:00:24.701Z,16.20
2023-02-23T13:01:49.709Z,16.20
2023-02-23T13:03:25.244Z,16.20
2023-02-23T13:05:03.217Z,16.10
2023-02-23T13:06:20.958Z,16.10
2023-02-23T13:07:36.743Z,16.10
2023-02-23T13:08:57.087Z,16.10
2023-02-23T13:10:22.998Z,16.10
2023-02-23T13:11:30.837Z,16.00
2023-02-23T13:12:45.753Z,16.00
2023-02-23T13:13:53.297Z,16.00
2023-02-23T13:15:18.424Z,16.00
2023-02-23T13:16:39.325Z,16.00
2023-02-23T13:19:43.938Z,16.00
2023-02-23T13:20:57.075Z,16.00
2023-02-23T13:22:36.918Z,16.20
2023-02-23T13:23:56.543Z,16.00
2023-02-23T13:25:04.943Z,16.00
2023-02-23T13:27:06.476Z,16.00
2023-02-23T13:28:19.566Z,16.00
2023-02-23T13:29:27.359Z,15.90
2023-02-23T13:30:33.902Z,15.90
2023-02-23T13:31:37.956Z,15.90
2023-02-23T13:32:40.003Z,15.90
2023-02-23T13:33:45.439Z,15.90
2023-02-23T13:35:03.787Z,15.90
2023-02-23T13:36:06.240Z,15.90
2023-02-23T13:37:10.104Z,15.90
2023-02-23T13:38:37.510Z,15.90
2023-02-23T13:40:04.792Z,15.90
2023-02-23T13:41:33.181Z,15.90
2023-02-23T13:43:03.392Z,15.80
2023-02-23T13:44:18.414Z,15.80
2023-02-23T13:45:39.921Z,15.80
2023-02-23T13:46:47.914Z,15.80
2023-02-23T13:48:27.492Z,15.80
2023-02-23T13:49:42.762Z,15.80
2023-02-23T13:51:16.460Z,15.80
2023-02-23T13:52:42.613Z,15.80
2023-02-23T13:54:13.443Z,15.80
2023-02-23T13:55:46.948Z,15.80
2023-02-23T13:57:01.894Z,15.80
2023-02-23T13:58:20.824Z,15.80
2023-02-23T13:59:25.994Z,15.80
2023-02-23T14:00:28.995Z,15.80
2023-02-23T14:01:33.404Z,15.80
2023-02-23T14:02:39.698Z,15.80
2023-02-23T14:03:48.367Z,15.80
2023-02-23T14:04:52.861Z,15.80
2023-02-23T14:05:59.562Z,15.80
2023-02-23T14:07:19.384Z,15.90
2023-02-23T14:08:28.233Z,15.90
2023-02-23T14:09:41.036Z,15.90
2023-02-23T14:10:45.575Z,15.90
2023-02-23T14:11:51.220Z,15.90
2023-02-23T14:13:13.556Z,15.90
2023-02-23T14:14:35.518Z,15.90
2023-02-23T14:15:40.579Z,15.90
2023-02-23T14:16:42.716Z,15.90
2023-02-23T14:17:58.838Z,15.90
2023-02-23T14:19:40.497Z,15.90
2023-02-23T14:20:49.589Z,15.90
2023-02-23T14:22:09.921Z,15.90
2023-02-23T14:23:19.573Z,15.90
2023-02-23T14:24:27.116Z,15.90
2023-02-23T14:25:35.039Z,15.90
2023-02-23T14:26:58.688Z,15.90
2023-02-23T14:28:06.732Z,15.90
2023-02-23T14:29:26.710Z,15.90
2023-02-23T14:30:42.835Z,15.90
2023-02-23T14:32:14.312Z,15.90
2023-02-23T14:33:59.041Z,15.90
2023-02-23T14:35:02.856Z,15.90
2023-02-23T14:36:28.784Z,16.00
2023-02-23T14:37:41.322Z,15.90
2023-02-23T14:38:48.270Z,15.90
2023-02-23T14:39:52.155Z,15.90
2023-02-23T14:41:02.162Z,15.80
2023-02-23T14:42:07.278Z,15.90
2023-02-23T14:43:44.224Z,15.90
2023-02-23T14:44:52.229Z,15.90
2023-02-23T14:46:03.491Z,15.90
2023-02-23T14:47:18.036Z,16.00
2023-02-23T14:48:22.527Z,16.00
2023-02-23T14:49:28.317Z,16.00
2023-02-23T14:50:33.625Z,16.00
2023-02-23T14:51:47.310Z,16.00
2023-02-23T14:52:52.208Z,16.00